Time;durP1;ratioP1;P1;durP2;ratioP2;P2;SDS_P1;SDS_P2;PMS_P1;PMS_P2;Temp;Humidity;BMP_temperature;BMP_pressure;BME280_temperature;BME280_humidity;BME280_pressure;Samples;Min_cycle;Max_cycle;Signal;HPM_P1;HPM_P2
2022/03/01 00:08:11;;;;;;;22.58;11.68;;;;;;;1.82;65.02;101704.50;20929223;28;20498;-67
2022/03/01 00:18:13;;;;;;;22.23;11.35;;;;;;;1.75;63.94;101712.00;20930680;28;20051;-68
2022/03/01 00:28:14;;;;;;;19.05;9.85;;;;;;;1.69;65.36;101710.88;20928454;28;20048;-68
2022/03/01 00:38:16;;;;;;;19.27;10.68;;;;;;;1.89;61.90;101728.06;21030547;28;20410;-69
2022/03/01 00:48:18;;;;;;;20.48;9.65;;;;;;;1.77;62.11;101720.72;21059524;28;20040;-68
2022/03/01 00:58:19;;;;;;;20.20;9.55;;;;;;;1.73;62.56;101718.81;21068189;28;20063;-68
2022/03/01 01:08:21;;;;;;;17.67;9.30;;;;;;;1.62;61.53;101716.59;20968350;28;20683;-70
2022/03/01 01:18:23;;;;;;;20.10;9.90;;;;;;;1.55;61.08;101723.22;20940637;28;20053;-69
2022/03/01 01:28:24;;;;;;;20.02;9.40;;;;;;;1.48;61.38;101716.03;20943108;28;20072;-69
2022/03/01 01:38:25;;;;;;;17.55;9.38;;;;;;;1.36;61.00;101711.25;21040148;28;20048;-68
2022/03/01 01:48:27;;;;;;;21.67;9.18;;;;;;;1.19;61.88;101718.22;21063766;28;20052;-70
2022/03/01 01:58:28;;;;;;;18.88;8.20;;;;;;;1.07;61.60;101722.00;21061850;28;20794;-68
2022/03/01 02:08:31;;;;;;;18.20;8.38;;;;;;;1.01;61.04;101738.09;20954830;28;20112;-68
2022/03/01 02:18:33;;;;;;;22.65;9.73;;;;;;;0.83;62.26;101716.63;20940798;28;20103;-69
2022/03/01 02:28:34;;;;;;;21.05;10.00;;;;;;;0.79;61.62;101723.34;20937702;28;20437;-67
2022/03/01 02:38:36;;;;;;;25.88;9.30;;;;;;;0.69;62.00;101716.88;21040408;28;20040;-68
2022/03/01 02:48:37;;;;;;;22.75;9.77;;;;;;;0.61;62.96;101715.66;21060141;28;20044;-69
2022/03/01 02:58:39;;;;;;;20.65;9.35;;;;;;;0.55;62.78;101705.06;21057156;28;20111;-68
2022/03/01 03:08:40;;;;;;;22.17;9.25;;;;;;;0.42;63.38;101706.19;20945959;28;20558;-69
2022/03/01 03:18:42;;;;;;;21.98;10.13;;;;;;;0.33;64.55;101707.47;20933280;28;20097;-69
2022/03/01 03:28:43;;;;;;;24.05;9.32;;;;;;;0.19;65.61;101712.88;20926095;28;20074;-69
2022/03/01 03:38:45;;;;;;;22.48;10.15;;;;;;;0.08;66.97;101720.88;21041022;28;20052;-68
2022/03/01 03:48:47;;;;;;;20.90;9.57;;;;;;;-0.06;67.65;101707.34;21055342;28;20113;-69
2022/03/01 03:58:50;;;;;;;23.30;10.88;;;;;;;-0.15;68.08;101702.63;21053473;28;20056;-71
2022/03/01 04:08:51;;;;;;;23.50;10.13;;;;;;;-0.37;69.01;101693.00;20951094;28;20546;-68
2022/03/01 04:18:54;;;;;;;24.92;10.07;;;;;;;-0.36;69.37;101694.75;20925890;28;20336;-68
2022/03/01 04:28:56;;;;;;;24.40;10.43;;;;;;;-0.48;70.73;101685.53;20953341;28;20045;-69
2022/03/01 04:38:57;;;;;;;20.85;10.20;;;;;;;-0.54;71.41;101693.84;21050962;28;20408;-68
2022/03/01 04:48:59;;;;;;;28.27;11.30;;;;;;;-0.64;71.86;101679.63;21069415;28;20067;-74
2022/03/01 04:59:00;;;;;;;23.73;10.10;;;;;;;-0.77;72.37;101682.38;21066008;28;20056;-70
2022/03/01 05:09:03;;;;;;;24.30;10.95;;;;;;;-0.85;72.80;101679.44;20956294;28;20440;-68
2022/03/01 05:19:07;;;;;;;28.58;11.75;;;;;;;-0.94;73.65;101678.09;20937359;28;20041;-68
2022/03/01 05:29:09;;;;;;;24.50;10.85;;;;;;;-1.05;74.62;101686.13;20948236;28;20055;-69
2022/03/01 05:39:10;;;;;;;28.70;11.93;;;;;;;-1.15;74.45;101681.34;21047873;28;20125;-70
2022/03/01 05:49:14;;;;;;;32.72;11.27;;;;;;;-1.16;73.80;101691.50;21064503;28;20138;-68
2022/03/01 05:59:17;;;;;;;25.73;11.85;;;;;;;-1.28;74.11;101699.47;21061841;28;20128;-68
2022/03/01 06:09:19;;;;;;;33.13;12.38;;;;;;;-1.28;74.56;101706.31;20942524;28;20056;-68
2022/03/01 06:19:20;;;;;;;29.00;13.43;;;;;;;-1.26;74.09;101715.84;20942237;28;20044;-68
2022/03/01 06:29:22;;;;;;;29.60;11.52;;;;;;;-1.32;75.25;101725.78;20937509;28;20068;-69
2022/03/01 06:39:23;;;;;;;31.65;11.80;;;;;;;-1.48;77.87;101730.94;21052723;28;20548;-69
2022/03/01 06:49:25;;;;;;;28.63;12.65;;;;;;;-1.30;76.16;101730.19;21059242;28;20043;-69
2022/03/01 06:59:26;;;;;;;25.08;11.60;;;;;;;-1.07;74.62;101738.25;21057317;28;20064;-68
2022/03/01 07:09:28;;;;;;;29.40;11.73;;;;;;;-0.84;72.49;101740.34;20942158;28;20609;-70
2022/03/01 07:19:29;;;;;;;27.40;11.35;;;;;;;-0.62;71.52;101746.59;20935506;28;20088;-70
2022/03/01 07:29:31;;;;;;;29.42;12.77;;;;;;;-0.46;70.96;101750.84;20928148;28;20045;-70
2022/03/01 07:39:32;;;;;;;28.73;12.20;;;;;;;-0.10;68.86;101754.31;21048447;28;20649;-70
2022/03/01 07:49:34;;;;;;;27.98;12.20;;;;;;;-0.02;67.34;101760.75;21050963;28;20126;-68
2022/03/01 07:59:36;;;;;;;28.50;11.55;;;;;;;0.30;66.40;101758.84;21036053;28;20048;-69
2022/03/01 08:09:39;;;;;;;24.50;11.68;;;;;;;0.72;64.02;101754.81;20928460;28;20044;-68
2022/03/01 08:19:40;;;;;;;25.73;10.75;;;;;;;1.10;61.77;101753.94;20928033;28;20051;-68
2022/03/01 08:29:42;;;;;;;26.25;11.68;;;;;;;1.34;61.23;101750.69;20925732;28;20552;-69
2022/03/01 08:39:43;;;;;;;24.85;11.90;;;;;;;1.66;59.27;101737.44;21038351;28;20489;-67
2022/03/01 08:49:45;;;;;;;24.80;11.35;;;;;;;1.88;60.37;101730.59;21050388;28;20546;-67
2022/03/01 08:59:46;;;;;;;25.05;10.82;;;;;;;2.23;57.81;101730.31;21048453;28;20044;-68
2022/03/01 09:09:48;;;;;;;22.83;11.93;;;;;;;2.63;54.07;101760.28;20934745;28;20052;-68
2022/03/01 09:19:49;;;;;;;24.20;10.15;;;;;;;2.76;53.62;101740.94;20943218;28;20502;-68
2022/03/01 09:29:51;;;;;;;23.77;10.57;;;;;;;3.03;51.42;101739.38;20942274;28;20450;-68
2022/03/01 09:39:52;;;;;;;22.42;10.57;;;;;;;3.35;51.17;101739.63;20934490;28;20048;-67
2022/03/01 09:49:54;;;;;;;25.55;11.73;;;;;;;3.91;50.63;101721.66;20939370;28;20461;-67
2022/03/01 09:59:55;;;;;;;19.80;10.50;;;;;;;3.97;50.09;101716.69;20933960;28;20539;-67
2022/03/01 10:10:09;;;;;;;18.77;10.65;;;;;;;4.32;50.78;101703.13;21057956;28;20098;-66
2022/03/01 10:20:15;;;;;;;24.88;10.80;;;;;;;4.78;47.68;101681.13;21059232;28;20050;-68
2022/03/01 10:30:25;;;;;;;20.17;10.45;;;;;;;4.81;48.12;101673.44;21056710;28;20105;-67
2022/03/01 10:40:28;;;;;;;18.35;8.98;;;;;;;5.35;43.13;101674.88;20934485;28;20130;-66
2022/03/01 10:50:29;;;;;;;17.92;9.02;;;;;;;5.28;44.03;101672.97;20938262;28;20044;-66
2022/03/01 11:00:33;;;;;;;19.90;10.15;;;;;;;5.61;38.74;101678.16;20931968;28;20475;-66
2022/03/01 11:10:40;;;;;;;16.65;8.55;;;;;;;5.98;38.96;101686.88;21056049;28;20394;-66
2022/03/01 11:20:46;;;;;;;22.05;11.15;;;;;;;6.07;37.62;101674.06;21054671;28;20819;-68
2022/03/01 11:30:51;;;;;;;19.23;8.30;;;;;;;6.26;37.83;101662.38;21044168;28;20052;-66
2022/03/01 11:40:55;;;;;;;18.98;8.88;;;;;;;6.50;40.55;101660.31;20932588;28;20488;-67
2022/03/01 11:51:03;;;;;;;20.02;9.55;;;;;;;6.50;38.53;101656.81;20923749;28;20090;-66
2022/03/01 12:01:07;;;;;;;19.55;9.38;;;;;;;6.81;38.94;101641.00;20940036;28;20048;-67
2022/03/01 12:11:10;;;;;;;20.55;9.30;;;;;;;6.87;38.04;101651.53;21052821;28;20059;-66
2022/03/01 12:21:13;;;;;;;19.10;9.35;;;;;;;6.68;38.67;101631.19;21049434;28;20054;-66
2022/03/01 12:31:25;;;;;;;17.60;8.90;;;;;;;6.66;38.04;101606.88;21032730;28;20071;-66
2022/03/01 12:41:27;;;;;;;17.02;8.80;;;;;;;6.86;37.14;101600.31;20929690;28;20044;-67
2022/03/01 12:51:31;;;;;;;17.35;9.27;;;;;;;6.57;36.72;101588.47;20940352;28;20103;-67
2022/03/01 13:01:33;;;;;;;16.80;8.02;;;;;;;6.59;35.72;101547.72;20960666;28;20048;-68
2022/03/01 13:11:37;;;;;;;16.17;8.07;;;;;;;6.58;35.71;101543.38;21065048;28;20051;-68
2022/03/01 13:21:41;;;;;;;16.52;7.10;;;;;;;6.79;34.09;101533.34;21062388;28;20071;-67
2022/03/01 13:31:44;;;;;;;14.25;7.63;;;;;;;6.80;34.10;101511.66;21047404;28;20048;-66
2022/03/01 13:41:48;;;;;;;15.18;7.63;;;;;;;6.77;34.30;101509.03;20936937;28;20040;-67
2022/03/01 13:51:50;;;;;;;15.07;7.13;;;;;;;7.08;34.46;101512.13;20941081;28;20488;-67
2022/03/01 14:01:51;;;;;;;15.30;7.47;;;;;;;7.04;34.94;101486.88;20955641;28;20459;-67
2022/03/01 14:11:58;;;;;;;14.30;6.80;;;;;;;7.22;35.41;101495.00;21058428;28;20040;-67
2022/03/01 14:21:59;;;;;;;13.77;7.05;;;;;;;7.05;32.16;101509.50;21060551;28;20077;-67
2022/03/01 14:32:01;;;;;;;16.40;7.75;;;;;;;7.20;31.96;101489.78;21034917;28;20037;-67
2022/03/01 14:42:03;;;;;;;15.18;7.60;;;;;;;7.25;32.97;101479.44;20933974;28;20075;-67
2022/03/01 14:52:06;;;;;;;13.65;7.20;;;;;;;7.27;31.00;101472.50;20934018;28;20075;-66
2022/03/01 15:02:08;;;;;;;13.45;7.05;;;;;;;7.36;30.75;101471.78;20954955;28;20394;-68
2022/03/01 15:12:11;;;;;;;14.88;7.22;;;;;;;7.37;30.91;101463.97;21054081;28;20135;-68
2022/03/01 15:22:14;;;;;;;14.50;6.93;;;;;;;7.31;31.10;101458.69;21054612;28;20488;-68
2022/03/01 15:32:16;;;;;;;13.90;6.90;;;;;;;7.44;30.86;101452.78;21020601;28;20041;-68
2022/03/01 15:42:18;;;;;;;15.85;7.65;;;;;;;7.39;31.56;101458.78;20932331;28;20044;-68
2022/03/01 15:52:19;;;;;;;16.55;7.35;;;;;;;7.17;33.94;101462.81;20923840;28;20099;-68
2022/03/01 16:02:21;;;;;;;16.20;8.05;;;;;;;6.88;35.30;101463.22;20960901;28;20047;-69
2022/03/01 16:12:25;;;;;;;14.77;7.78;;;;;;;7.02;35.32;101452.16;21051681;28;20058;-68
2022/03/01 16:22:26;;;;;;;20.35;10.10;;;;;;;6.87;35.95;101453.66;21066911;28;20101;-68
2022/03/01 16:32:28;;;;;;;16.65;8.63;;;;;;;6.57;37.10;101447.97;21042172;28;20056;-68
2022/03/01 16:42:29;;;;;;;20.48;10.68;;;;;;;6.32;37.75;101447.50;20938215;28;20501;-68
2022/03/01 16:52:37;;;;;;;18.77;9.77;;;;;;;6.11;39.13;101463.56;20943984;28;20132;-68
2022/03/01 17:02:39;;;;;;;21.38;9.40;;;;;;;5.97;39.24;101458.94;20969128;28;20109;-68
2022/03/01 17:12:41;;;;;;;17.35;9.77;;;;;;;5.78;40.79;101457.66;21063142;28;20460;-68
2022/03/01 17:22:43;;;;;;;22.77;11.57;;;;;;;5.58;41.96;101459.84;21061875;28;20059;-67
2022/03/01 17:32:45;;;;;;;25.33;11.52;;;;;;;5.49;42.84;101457.91;21032524;28;20066;-68
2022/03/01 17:42:46;;;;;;;21.35;10.80;;;;;;;5.31;42.87;101462.69;20934841;28;20460;-68
2022/03/01 17:52:48;;;;;;;22.58;11.52;;;;;;;5.18;43.05;101458.09;20940899;28;20053;-68
2022/03/01 18:02:50;;;;;;;22.58;12.48;;;;;;;5.14;43.36;101455.41;20964514;28;20048;-68
2022/03/01 18:12:53;;;;;;;22.35;12.20;;;;;;;4.93;43.97;101461.78;21051807;28;20036;-68
2022/03/01 18:22:55;;;;;;;19.23;10.10;;;;;;;4.83;43.08;101471.94;21059039;28;20489;-68
2022/03/01 18:33:16;;;;;;;23.90;11.27;;;;;;;4.64;45.30;101464.53;21015897;28;20481;-68
2022/03/01 18:43:18;;;;;;;18.85;9.80;;;;;;;4.51;46.91;101462.50;20950986;28;20101;-67
2022/03/01 18:53:20;;;;;;;50.17;33.75;;;;;;;4.14;49.29;101456.31;20931834;28;20518;-68
2022/03/01 19:03:22;;;;;;;28.48;13.82;;;;;;;4.11;47.18;101462.28;20924617;28;20102;-68
2022/03/01 19:13:25;;;;;;;25.33;12.18;;;;;;;4.13;47.07;101448.50;20938710;28;20049;-68
2022/03/01 19:23:27;;;;;;;25.17;13.75;;;;;;;4.11;47.13;101462.28;20926068;28;20049;-69
2022/03/01 19:33:28;;;;;;;26.55;13.43;;;;;;;4.02;46.96;101462.03;20963174;28;20486;-68
2022/03/01 19:43:30;;;;;;;23.60;13.25;;;;;;;3.97;47.66;101460.16;21048847;28;20120;-68
2022/03/01 19:53:32;;;;;;;27.48;13.65;;;;;;;3.76;48.48;101466.47;21046478;28;20051;-68
2022/03/01 20:03:34;;;;;;;25.73;13.43;;;;;;;3.58;48.68;101460.75;21008792;28;20115;-68
2022/03/01 20:13:37;;;;;;;27.10;13.02;;;;;;;3.68;48.28;101439.47;20927539;28;20044;-68
2022/03/01 20:23:41;;;;;;;23.13;11.55;;;;;;;3.56;47.24;101429.66;20923408;28;20059;-68
2022/03/01 20:33:43;;;;;;;25.38;12.95;;;;;;;3.20;49.95;101431.13;20969918;28;20056;-68
2022/03/01 20:43:45;;;;;;;27.88;14.20;;;;;;;3.04;50.21;101422.88;21047200;28;20078;-68
2022/03/01 20:53:47;;;;;;;25.95;13.45;;;;;;;2.85;50.93;101420.56;21049022;28;20515;-68
2022/03/01 21:03:49;;;;;;;29.67;15.55;;;;;;;2.83;50.82;101399.81;21005635;28;20057;-67
2022/03/01 21:13:51;;;;;;;34.42;17.23;;;;;;;2.85;50.58;101388.66;20940321;28;20052;-67
2022/03/01 21:23:54;;;;;;;27.42;14.43;;;;;;;2.70;51.62;101369.22;20935328;28;20074;-68
2022/03/01 21:33:56;;;;;;;24.98;13.50;;;;;;;2.78;51.49;101367.78;20941424;28;20045;-67
2022/03/01 21:43:57;;;;;;;27.85;13.02;;;;;;;2.61;52.00;101373.22;20935511;28;20281;-67
2022/03/01 21:53:59;;;;;;;23.60;12.30;;;;;;;2.13;54.80;101366.50;20936285;28;20036;-68
2022/03/01 22:04:02;;;;;;;24.05;11.90;;;;;;;1.69;56.21;101371.00;20938272;28;20831;-67
2022/03/01 22:14:04;;;;;;;24.13;13.05;;;;;;;1.42;58.28;101375.16;20928474;28;20098;-67
2022/03/01 22:24:06;;;;;;;24.73;11.77;;;;;;;1.11;61.53;101376.59;20936956;28;20048;-67
2022/03/01 22:34:08;;;;;;;25.63;13.52;;;;;;;1.06;59.47;101370.38;20982758;28;20044;-68
2022/03/01 22:44:09;;;;;;;25.98;12.80;;;;;;;1.00;59.80;101364.94;21056453;28;20489;-67
2022/03/01 22:54:11;;;;;;;27.48;12.57;;;;;;;1.01;59.82;101361.59;21053752;28;20044;-69
2022/03/01 23:04:13;;;;;;;25.80;12.35;;;;;;;1.21;58.83;101376.09;20998587;28;20044;-68
2022/03/01 23:14:15;;;;;;;26.88;13.38;;;;;;;1.27;60.27;101384.06;20926103;28;20408;-67
2022/03/01 23:24:17;;;;;;;23.50;12.02;;;;;;;1.24;59.24;101371.03;20935241;28;20543;-68
2022/03/01 23:34:18;;;;;;;25.50;12.27;;;;;;;1.48;58.37;101353.00;20925913;28;20090;-67
2022/03/01 23:44:20;;;;;;;29.23;12.32;;;;;;;1.47;59.35;101363.28;20935435;28;20098;-67
2022/03/01 23:54:25;;;;;;;26.52;13.48;;;;;;;1.62;59.01;101358.66;20932712;28;20134;-68
